Latest Weather Observations for Rundle Island

IDQ60801

Issued at 11:32 pm EST Friday 26 August 2016 (issued every 30 minutes, with the page automatically refreshed every 10 minutes)

About weather observations | Map of weather stations | Latest weather observations for QLD | Other Formats
Station Details ID: 039322 Name: RUNDLE ISLAND Lat: -23.53 Lon: 151.28 Height: 19.8 m
Data from the previous 72 hours. | See also: Recent months at Rundle Island
Date/Time
EST
Temp
°C
App
Temp
°C
Dew
Point
°C
Rel
Hum
%
Delta-T
°C
Wind Press
QNH
hPa
Press
MSL
hPa
Rain since
9am
mm
Dir  Spd
km/h
Gust
km/h
Spd
kts
Gust
kts
26/11:30pm 16.9 - - - - SW 22 28 12 15 1019.7 1019.6 -
26/11:00pm 16.5 - - - - SW 20 22 11 12 1019.7 1019.6 -
26/10:30pm 16.1 - - - - SW 19 22 10 12 1019.8 1019.7 -
26/10:00pm 16.2 - - - - SW 15 19 8 10 1019.5 1019.4 -
26/09:30pm 16.8 - - - - WSW 15 20 8 11 1019.0 1018.9 -
26/09:00pm 17.1 - - - - WSW 19 22 10 12 1018.8 1018.7 -
26/08:30pm 17.2 - - - - WSW 15 17 8 9 1018.7 1018.6 -
26/08:00pm 17.4 - - - - W 13 17 7 9 1018.4 1018.3 -
26/07:30pm 17.5 - - - - W 15 17 8 9 1018.2 1018.1 -
26/07:00pm 17.5 - - - - W 11 15 6 8 1017.9 1017.8 -
26/06:30pm 17.1 - - - - WNW 7 9 4 5 1017.6 1017.5 -
26/06:00pm 17.0 - - - - W 9 11 5 6 1017.3 1017.2 -
26/05:30pm 17.2 - - - - NW 6 9 3 5 1017.0 1016.9 -
26/05:00pm 17.0 - - - - W 7 9 4 5 1016.8 1016.7 -
26/04:30pm 16.8 - - - - W 9 13 5 7 1016.5 1016.4 -
26/04:00pm 16.5 - - - - WSW 11 15 6 8 1016.3 1016.2 -
26/03:30pm 16.5 - - - - SW 15 19 8 10 1016.1 1016.0 -
26/03:00pm 16.7 - - - - SW 13 17 7 9 1015.8 1015.7 -
26/02:30pm 16.8 - - - - SSW 15 17 8 9 1015.9 1015.8 -
26/02:00pm 17.3 - - - - SSW 22 26 12 14 1015.7 1015.6 -
26/01:30pm 17.1 - - - - SSW 19 22 10 12 1015.8 1015.7 -
26/01:00pm 17.4 - - - - SSW 22 26 12 14 1015.7 1015.6 -
26/12:30pm 17.7 - - - - SSW 20 24 11 13 1016.2 1016.1 -
26/12:00pm 17.0 - - - - SSE 17 20 9 11 1016.5 1016.4 -
26/11:30am 16.6 - - - - S 13 17 7 9 1017.1 1017.0 -
26/11:00am 16.2 - - - - S 15 20 8 11 1017.2 1017.1 -
26/10:30am 16.1 - - - - S 22 26 12 14 1017.7 1017.6 -
26/10:00am 16.2 - - - - S 22 28 12 15 1017.6 1017.5 -
26/09:30am 16.0 - - - - SSE 20 26 11 14 1017.9 1017.8 -
26/09:00am 16.2 - - - - S 26 30 14 16 1017.3 1017.2 -
26/08:30am 16.1 - - - - S 30 39 16 21 1017.0 1016.9 -
26/08:00am 16.0 - - - - S 22 28 12 15 1017.3 1017.2 -
26/07:30am 16.0 - - - - S 20 24 11 13 1017.3 1017.2 -
26/07:00am 15.9 - - - - S 24 28 13 15 1017.0 1016.9 -
26/06:30am 16.4 - - - - S 30 35 16 19 1016.6 1016.5 -
26/06:00am 16.6 - - - - S 28 32 15 17 1016.2 1016.1 -
26/05:30am 16.7 - - - - SSE 26 30 14 16 1016.0 1015.9 -
26/05:00am 16.5 - - - - SSE 26 32 14 17 1015.3 1015.2 -
26/04:30am 16.7 - - - - S 28 33 15 18 1015.4 1015.3 -
26/04:00am 17.1 - - - - SSE 32 39 17 21 1014.9 1014.8 -
26/03:30am 17.1 - - - - S 32 37 17 20 1014.5 1014.4 -
26/03:00am 17.4 - - - - S 30 35 16 19 1014.6 1014.5 -
26/02:30am 17.8 - - - - S 32 35 17 19 1014.7 1014.6 -
26/02:00am 18.1 - - - - SSE 32 37 17 20 1014.6 1014.5 -
26/01:30am 18.0 - - - - S 28 33 15 18 1014.9 1014.8 -
26/01:00am 17.9 - - - - S 30 33 16 18 1014.9 1014.8 -
26/12:30am 18.2 - - - - SSW 32 35 17 19 1015.1 1015.0 -
26/12:00am 18.6 - - - - SSW 30 35 16 19 1015.4 1015.3 -
 
Date/Time
EST
Temp
°C
App
Temp
°C
Dew
Point
°C
Rel
Hum
%
Delta-T
°C
Wind Press
QNH
hPa
Press
MSL
hPa
Rain since
9am
mm
Dir  Spd
km/h
Gust
km/h
Spd
kts
Gust
kts
25/11:00pm 18.5 - - - - SW 13 17 7 9 1015.7 1015.6 -
25/10:30pm 18.8 - - - - SW 9 13 5 7 1015.5 1015.4 -
25/10:00pm 19.0 - - - - SW 7 11 4 6 1015.5 1015.4 -
25/09:30pm 19.2 - - - - WSW 7 9 4 5 1015.1 1015.0 -
25/09:00pm 18.9 - - - - W 9 11 5 6 1015.0 1014.9 -
25/08:30pm 19.3 - - - - NW 9 11 5 6 1014.9 1014.8 -
25/08:00pm 19.4 - - - - NW 9 13 5 7 1014.7 1014.6 -
25/07:30pm 19.5 - - - - NNW 15 17 8 9 1014.6 1014.5 -
25/07:00pm 19.4 - - - - NNW 15 17 8 9 1014.1 1014.0 -
25/06:30pm 19.3 - - - - NNW 17 19 9 10 1013.8 1013.7 -
25/06:00pm 19.2 - - - - NNW 17 20 9 11 1013.2 1013.1 -
25/05:30pm 19.0 - - - - N 19 22 10 12 1013.0 1012.9 -
25/05:00pm 19.0 - - - - NNW 17 19 9 10 1012.8 1012.7 -
25/04:30pm 19.0 - - - - N 15 15 8 8 1012.3 1012.2 -
25/04:00pm 18.6 - - - - CALM 0 2 0 1 1012.1 1012.0 -
25/03:30pm 18.8 - - - - CALM 0 6 0 3 1011.7 1011.6 -
25/03:00pm 18.7 - - - - CALM 0 0 0 0 1011.8 1011.7 -
25/02:30pm 18.9 - - - - CALM 0 0 0 0 1012.1 1012.0 -
25/02:00pm 18.5 - - - - CALM 0 0 0 0 1011.9 1011.8 -
25/01:30pm 18.6 - - - - S 4 6 2 3 1012.1 1012.0 -
25/01:00pm 18.5 - - - - S 6 9 3 5 1012.5 1012.4 -
25/12:30pm 18.0 - - - - S 13 17 7 9 1012.7 1012.6 -
25/12:00pm 17.8 - - - - SSW 11 13 6 7 1013.2 1013.1 -
25/11:30am 17.9 - - - - SSW 20 24 11 13 1013.2 1013.1 -
25/11:00am 17.7 - - - - SSW 20 24 11 13 1013.7 1013.6 -
25/10:30am 17.4 - - - - SW 24 26 13 14 1014.2 1014.1 -
25/10:00am 17.8 - - - - SW 19 22 10 12 1014.3 1014.2 -
25/09:30am 18.1 - - - - SSW 19 24 10 13 1014.1 1014.0 -
25/09:00am 18.1 - - - - WSW 15 19 8 10 1013.9 1013.8 -
25/08:30am 18.2 - - - - SW 13 17 7 9 1013.7 1013.6 -
25/08:00am 18.1 - - - - W 13 15 7 8 1013.2 1013.1 -
25/07:30am 18.2 - - - - W 11 13 6 7 1013.1 1013.0 -
25/07:00am 18.2 - - - - NW 17 19 9 10 1013.1 1013.0 -
25/06:30am 18.0 - - - - W 9 13 5 7 1012.0 1011.9 -
25/06:00am 18.2 - - - - WNW 9 9 5 5 1012.3 1012.2 -
25/05:30am 18.1 - - - - WNW 9 13 5 7 1012.0 1011.9 -
25/05:00am 18.0 - - - - SW 13 15 7 8 1010.5 1010.5 -
25/04:30am 18.4 - - - - WNW 7 13 4 7 1011.3 1011.3 -
25/04:00am 18.4 - - - - NW 17 20 9 11 1011.2 1011.2 -
25/03:30am 18.2 - - - - WNW 20 24 11 13 1010.6 1010.6 -
25/03:00am 18.1 - - - - NW 17 20 9 11 1009.9 1009.9 -
25/02:30am 18.2 - - - - WNW 24 28 13 15 1011.7 1011.6 -
25/02:00am 18.9 - - - - WNW 19 24 10 13 1011.2 1011.2 -
25/01:30am 18.9 - - - - NW 22 28 12 15 1011.3 1011.3 -
25/01:00am 18.7 - - - - NNW 26 28 14 15 1011.2 1011.2 -
25/12:30am 18.7 - - - - NNW 28 32 15 17 1011.5 1011.5 -
25/12:00am 18.7 - - - - NNW 26 32 14 17 1012.3 1012.2 -
 
Date/Time
EST
Temp
°C
App
Temp
°C
Dew
Point
°C
Rel
Hum
%
Delta-T
°C
Wind Press
QNH
hPa
Press
MSL
hPa
Rain since
9am
mm
Dir  Spd
km/h
Gust
km/h
Spd
kts
Gust
kts
24/11:30pm 18.9 - - - - NNW 28 32 15 17 1012.7 1012.6 -
24/11:00pm 18.8 - - - - NNW 32 37 17 20 1012.5 1012.4 -
24/10:30pm 20.2 - - - - NW 15 20 8 11 1012.2 1012.1 -
24/10:00pm 20.3 - - - - SSW 6 13 3 7 1011.5 1011.5 -
24/09:30pm 20.6 - - - - NW 6 7 3 4 1011.1 1011.1 -
24/09:00pm 20.5 - - - - NNW 9 11 5 6 1010.9 1010.9 -
24/08:30pm 20.3 - - - - NNW 13 15 7 8 1011.1 1011.1 -
24/08:00pm 20.8 - - - - NNW 11 15 6 8 1011.2 1011.2 -
24/07:30pm 21.1 - - - - N 17 20 9 11 1011.0 1011.0 -
24/07:00pm 21.2 - - - - NNE 7 9 4 5 1010.2 1010.2 -
24/06:30pm 21.4 - - - - NNE 7 9 4 5 1010.0 1010.0 -
24/06:00pm 21.6 - - - - SW 7 11 4 6 1009.8 1009.8 -
24/05:30pm 21.6 - - - - SW 19 24 10 13 1009.6 1009.6 -
24/05:00pm 21.9 - - - - WSW 28 35 15 19 1009.4 1009.4 -
24/04:30pm 22.4 - - - - SW 30 39 16 21 1008.9 1008.9 -
24/04:00pm 22.7 - - - - SW 41 57 22 31 1008.7 1008.7 -
24/03:48pm 23.1 - - - - SW 28 50 15 27 1008.6 1008.6 -
24/03:30pm 22.6 - - - - SW 22 24 12 13 1008.6 1008.6 -
24/03:00pm 21.8 - - - - NW 19 20 10 11 1008.3 1008.3 -
24/02:30pm 21.9 - - - - NNW 17 20 9 11 1008.0 1008.0 -
24/02:00pm 22.1 - - - - NNW 11 13 6 7 1008.0 1008.0 -
24/01:30pm 22.0 - - - - NNW 22 24 12 13 1008.1 1008.1 -
24/01:00pm 21.6 - - - - N 17 20 9 11 1008.5 1008.5 -
24/12:30pm 21.6 - - - - N 17 19 9 10 1008.8 1008.8 -
24/12:00pm 21.8 - - - - NNW 19 20 10 11 1009.2 1009.2 -
24/11:30am 21.9 - - - - NNW 19 20 10 11 1009.9 1009.9 -
24/11:00am 22.1 - - - - NW 19 20 10 11 1010.5 1010.5 -
24/10:30am 21.6 - - - - NNW 24 26 13 14 1010.7 1010.7 -
24/10:00am 21.5 - - - - NNW 20 22 11 12 1011.0 1011.0 -
24/09:30am 21.3 - - - - NNW 19 20 10 11 1011.1 1011.1 -
24/09:00am 21.3 - - - - NNW 17 19 9 10 1011.1 1011.1 -
24/08:30am 21.0 - - - - N 20 24 11 13 1010.8 1010.8 -
24/08:00am 21.0 - - - - N 20 24 11 13 1010.6 1010.6 -
24/07:30am 21.0 - - - - NNW 20 22 11 12 1010.3 1010.3 -
24/07:00am 21.0 - - - - NNW 20 24 11 13 1010.1 1010.1 -
24/06:30am 20.9 - - - - NNW 20 24 11 13 1009.7 1009.7 -
24/06:00am 20.9 - - - - NNW 19 20 10 11 1009.4 1009.4 -
24/05:30am 21.1 - - - - N 22 24 12 13 1008.9 1008.9 -
24/05:00am 21.0 - - - - N 26 28 14 15 1008.5 1008.5 -
24/04:30am 21.0 - - - - NNW 24 28 13 15 1008.2 1008.2 -
24/04:00am 21.1 - - - - NNW 24 28 13 15 1008.1 1008.1 -
24/03:30am 21.1 - - - - N 22 24 12 13 1008.5 1008.5 -
24/03:00am 21.0 - - - - NNW 20 22 11 12 1008.7 1008.7 -
24/02:30am 21.1 - - - - N 22 24 12 13 1008.9 1008.9 -
24/02:00am 21.3 - - - - N 26 30 14 16 1009.2 1009.2 -
24/01:30am 21.2 - - - - N 20 28 11 15 1009.7 1009.7 -
24/01:00am 21.2 - - - - N 19 22 10 12 1010.1 1010.1 -
24/12:30am 21.3 - - - - N 22 26 12 14 1010.3 1010.3 -
24/12:00am 21.2 - - - - NNE 19 20 10 11 1010.6 1010.6 -

Other Formats:

Comma delimited format used in spreadsheet applications
http://www.bom.gov.au/fwo/IDQ60801/IDQ60801.94378.axf

JavaScript Object Notation format (JSON) in row-major order
http://www.bom.gov.au/fwo/IDQ60801/IDQ60801.94378.json